Time;durP1;ratioP1;P1;durP2;ratioP2;P2;SDS_P1;SDS_P2;PMS_P1;PMS_P2;Temp;Humidity;BMP_temperature;BMP_pressure;BME280_temperature;BME280_humidity;BME280_pressure;Samples;Min_cycle;Max_cycle;Signal;HPM_P1;HPM_P2
2024/02/19 00:00:05;;;;;;;;;6.00;6.00;;;;;13.71;100.00;102411.13;6288958;22;44990;-84
2024/02/19 00:02:31;;;;;;;;;6.00;6.00;;;;;13.70;100.00;102414.69;6319421;22;45581;-83
2024/02/19 00:08:18;;;;;;;;;8.00;7.33;;;;;13.70;100.00;102419.13;6315480;22;44826;-84
2024/02/19 00:10:44;;;;;;;;;6.67;6.00;;;;;13.67;100.00;102419.94;6316562;22;44860;-84
2024/02/19 00:13:09;;;;;;;;;11.00;10.00;;;;;13.66;100.00;102415.47;6284957;22;47365;-85
2024/02/19 00:15:35;;;;;;;;;4.33;4.33;;;;;13.66;100.00;102423.50;6313049;22;44941;-85
2024/02/19 00:18:01;;;;;;;;;6.67;6.00;;;;;13.62;100.00;102410.91;6285439;22;45541;-84
2024/02/19 00:20:26;;;;;;;;;6.00;6.00;;;;;13.63;100.00;102412.69;6288816;22;45437;-85
2024/02/19 00:22:53;;;;;;;;;7.33;7.33;;;;;13.69;100.00;102412.84;6289170;22;48262;-83
2024/02/19 00:25:18;;;;;;;;;10.67;8.33;;;;;13.62;100.00;102418.91;6288088;22;45367;-85
2024/02/19 00:27:44;;;;;;;;;7.33;5.67;;;;;13.55;100.00;102401.81;6317425;22;45309;-83
2024/02/19 00:30:10;;;;;;;;;10.00;8.00;;;;;13.61;100.00;102417.09;6286721;22;44841;-83
2024/02/19 00:32:36;;;;;;;;;6.00;6.00;;;;;13.54;100.00;102416.03;6315374;22;45394;-84
2024/02/19 00:35:02;;;;;;;;;6.00;5.67;;;;;13.50;100.00;102419.47;6287554;22;45229;-84
2024/02/19 00:37:27;;;;;;;;;4.67;3.67;;;;;13.54;100.00;102417.78;6313924;22;44751;-86
2024/02/19 00:39:53;;;;;;;;;4.00;4.00;;;;;13.55;100.00;102422.25;6308820;22;45260;-85
2024/02/19 00:42:18;;;;;;;;;6.67;6.67;;;;;13.51;100.00;102417.69;6285064;22;46985;-86
2024/02/19 00:44:44;;;;;;;;;5.33;5.33;;;;;13.46;100.00;102408.66;6286097;22;44999;-84
2024/02/19 00:47:11;;;;;;;;;6.67;4.67;;;;;13.55;100.00;102423.19;6286696;22;44871;-85
2024/02/19 00:49:36;;;;;;;;;5.67;5.67;;;;;13.54;100.00;102417.78;6316910;22;45450;-85
2024/02/19 00:52:02;;;;;;;;;7.33;5.00;;;;;13.54;100.00;102417.78;6286850;22;46931;-85
2024/02/19 00:54:27;;;;;;;;;4.00;4.00;;;;;13.52;100.00;102412.41;6287893;22;45833;-85
2024/02/19 00:56:52;;;;;;;;;4.00;4.00;;;;;13.51;100.00;102407.00;6312861;22;44829;-85
2024/02/19 00:59:18;;;;;;;;;3.67;2.33;;;;;13.59;100.00;102416.13;6315466;22;44731;-85
2024/02/19 01:01:43;;;;;;;;;2.33;2.33;;;;;13.60;100.00;102423.31;6286474;22;47102;-84
2024/02/19 01:04:08;;;;;;;;;4.33;4.33;;;;;13.61;100.00;102414.41;6287233;22;45064;-84
2024/02/19 01:09:56;;;;;;;;;7.33;7.33;;;;;13.61;100.00;102417.09;6314907;22;44804;-85
2024/02/19 01:12:21;;;;;;;;;8.00;5.67;;;;;13.60;100.00;102424.22;6288529;22;46238;-85
2024/02/19 01:14:47;;;;;;;;;4.67;4.67;;;;;13.58;100.00;102425.03;6313076;22;45302;-83
2024/02/19 01:17:12;;;;;;;;;5.67;5.00;;;;;13.56;100.00;102422.31;6313320;22;45401;-85
2024/02/19 01:19:41;;;;;;;;;5.67;5.00;;;;;13.56;100.00;102421.41;6288211;22;45377;-85
2024/02/19 01:22:06;;;;;;;;;7.33;4.67;;;;;13.53;100.00;102421.31;6315707;22;44917;-85
2024/02/19 01:24:32;;;;;;;;;4.33;4.33;;;;;13.52;100.00;102415.06;6313355;22;45438;-84
2024/02/19 01:26:59;;;;;;;;;8.33;5.00;;;;;13.57;100.00;102417.88;6284359;22;45236;-85
2024/02/19 01:29:25;;;;;;;;;4.00;4.00;;;;;13.54;100.00;102423.13;6313635;22;44819;-85
2024/02/19 01:31:51;;;;;;;;;4.67;3.00;;;;;13.58;100.00;102419.69;6312845;22;45286;-85
2024/02/19 01:34:17;;;;;;;;;6.00;5.00;;;;;13.64;100.00;102421.63;6312506;22;44793;-85
2024/02/19 01:36:44;;;;;;;;;6.00;3.67;;;;;13.63;100.00;102412.69;6286968;22;44817;-85
2024/02/19 01:39:09;;;;;;;;;7.67;5.00;;;;;13.64;100.00;102425.22;6283727;22;45419;-84
2024/02/19 01:41:34;;;;;;;;;6.00;6.00;;;;;13.71;100.00;102427.19;6282052;22;47225;-83
2024/02/19 01:44:01;;;;;;;;;5.00;4.00;;;;;13.73;100.00;102424.56;6311427;22;45310;-84
2024/02/19 01:46:32;;;;;;;;;6.00;4.33;;;;;13.80;100.00;102421.22;6283320;22;45290;-82
2024/02/19 01:48:58;;;;;;;;;9.33;6.33;;;;;13.75;100.00;102423.72;6311752;22;45322;-82
2024/02/19 01:51:24;;;;;;;;;5.67;4.00;;;;;13.73;100.00;102420.09;6308905;22;45433;-83
2024/02/19 01:53:52;;;;;;;;;9.33;6.67;;;;;13.72;100.00;102414.75;6280227;22;45317;-83
2024/02/19 01:56:18;;;;;;;;;9.33;7.00;;;;;13.74;100.00;102418.38;6278515;22;45363;-82
2024/02/19 01:58:45;;;;;;;;;7.33;6.00;;;;;13.78;100.00;102421.16;6306650;22;45321;-82
2024/02/19 02:01:14;;;;;;;;;10.00;10.00;;;;;13.84;100.00;102415.06;6305056;22;45412;-82
2024/02/19 02:03:42;;;;;;;;;9.00;9.00;;;;;13.80;100.00;102418.53;6279546;22;45630;-83
2024/02/19 02:06:14;;;;;;;;;10.00;8.00;;;;;13.88;100.00;102411.63;6278975;22;45277;-83
2024/02/19 02:08:46;;;;;;;;;8.00;6.00;;;;;13.87;100.00;102411.56;6279318;22;45304;-83
2024/02/19 02:11:12;;;;;;;;;9.00;7.33;;;;;13.78;100.00;102418.47;6308358;22;46026;-83
2024/02/19 02:13:38;;;;;;;;;9.00;8.33;;;;;13.78;100.00;102407.78;6309306;22;45629;-82
2024/02/19 02:16:04;;;;;;;;;12.00;11.00;;;;;13.80;100.00;102408.72;6280673;22;45338;-83
2024/02/19 02:18:31;;;;;;;;;4.00;4.00;;;;;13.80;100.00;102406.06;6280077;22;45300;-83
2024/02/19 02:20:58;;;;;;;;;7.67;6.33;;;;;13.85;100.00;102410.63;6308027;22;46270;-83
2024/02/19 02:23:26;;;;;;;;;9.00;8.00;;;;;13.91;100.00;102408.13;6254306;22;45423;-83
2024/02/19 02:25:53;;;;;;;;;7.33;6.00;;;;;13.78;100.00;102402.44;6308719;22;45439;-83
2024/02/19 02:28:19;;;;;;;;;12.67;9.33;;;;;13.80;100.00;102402.50;6281027;22;45639;-82
2024/02/19 02:30:46;;;;;;;;;10.67;7.33;;;;;13.83;100.00;102396.31;6280471;22;47704;-82
2024/02/19 02:33:12;;;;;;;;;9.00;8.33;;;;;13.72;100.00;102404.03;6307027;22;45322;-82
2024/02/19 02:35:38;;;;;;;;;8.33;6.00;;;;;13.75;100.00;102402.34;6306564;22;45333;-82
2024/02/19 02:38:04;;;;;;;;;9.33;7.00;;;;;13.76;100.00;102404.16;6305022;22;45378;-82
2024/02/19 02:40:29;;;;;;;;;12.33;7.33;;;;;13.72;100.00;102396.91;6278127;22;46984;-82
2024/02/19 02:42:54;;;;;;;;;6.00;6.00;;;;;13.77;100.00;102408.63;6307498;22;45385;-83
2024/02/19 02:45:20;;;;;;;;;8.00;5.00;;;;;13.75;100.00;102402.34;6307929;22;45368;-83
2024/02/19 02:47:45;;;;;;;;;8.00;8.00;;;;;13.77;100.00;102402.38;6281553;22;45743;-82
2024/02/19 02:50:12;;;;;;;;;11.00;5.00;;;;;13.74;100.00;102395.19;6308686;22;45342;-82
2024/02/19 02:52:37;;;;;;;;;7.33;6.00;;;;;13.75;100.00;102404.13;6280672;22;45919;-81
2024/02/19 02:55:03;;;;;;;;;9.33;8.67;;;;;13.76;100.00;102392.56;6306851;22;45401;-81
2024/02/19 02:57:28;;;;;;;;;7.00;6.33;;;;;13.75;100.00;102406.78;6250028;22;45263;-82
2024/02/19 02:59:53;;;;;;;;;9.67;7.33;;;;;13.72;100.00;102399.59;6249244;22;47081;-82
2024/02/19 03:02:19;;;;;;;;;6.00;6.00;;;;;13.71;100.00;102389.75;6247803;22;45356;-83
2024/02/19 03:04:44;;;;;;;;;9.00;6.67;;;;;13.73;100.00;102398.72;6276470;22;45268;-83
2024/02/19 03:07:16;;;;;;;;;10.00;6.67;;;;;13.77;100.00;102407.72;6249805;22;45277;-83
2024/02/19 03:09:42;;;;;;;;;11.67;6.33;;;;;13.70;100.00;102404.00;6247615;22;47150;-82
2024/02/19 03:12:07;;;;;;;;;9.00;6.00;;;;;13.73;100.00;102408.50;6246184;22;45304;-84
2024/02/19 03:14:33;;;;;;;;;9.33;8.67;;;;;13.73;100.00;102412.09;6276924;22;45762;-84
2024/02/19 03:16:59;;;;;;;;;4.67;4.67;;;;;13.68;100.00;102411.06;6249630;22;45203;-84
2024/02/19 03:19:24;;;;;;;;;6.33;6.33;;;;;13.70;100.00;102413.78;6246918;22;47160;-84
2024/02/19 03:21:50;;;;;;;;;9.33;8.33;;;;;13.58;100.00;102400.97;6273768;22;45373;-84
2024/02/19 03:24:16;;;;;;;;;7.67;7.67;;;;;13.55;100.00;102403.56;6276469;22;45400;-84
2024/02/19 03:26:41;;;;;;;;;10.00;10.00;;;;;13.54;100.00;102402.66;6247824;22;45202;-83
2024/02/19 03:29:12;;;;;;;;;12.00;10.00;;;;;13.70;100.00;102411.13;6275512;22;45995;-82
2024/02/19 03:31:41;;;;;;;;;13.00;10.00;;;;;13.69;100.00;102406.63;6275611;22;45359;-83
2024/02/19 03:34:07;;;;;;;;;8.33;7.00;;;;;13.68;100.00;102412.84;6249276;22;45365;-83
2024/02/19 03:36:32;;;;;;;;;11.00;9.67;;;;;13.65;100.00;102404.72;6248452;22;45111;-82
2024/02/19 03:38:58;;;;;;;;;7.00;6.00;;;;;13.65;100.00;102400.28;6279144;22;46175;-83
2024/02/19 03:41:24;;;;;;;;;9.00;9.00;;;;;13.68;100.00;102410.16;6251195;22;45327;-83
2024/02/19 03:43:49;;;;;;;;;14.33;11.00;;;;;13.64;100.00;102403.81;6249335;22;45384;-83
2024/02/19 03:46:15;;;;;;;;;13.00;10.33;;;;;13.64;100.00;102406.50;6250728;22;45378;-83
2024/02/19 03:48:42;;;;;;;;;12.00;10.00;;;;;13.57;100.00;102405.44;6249408;22;46958;-85
2024/02/19 03:51:12;;;;;;;;;12.33;10.67;;;;;13.60;100.00;102404.59;6276287;22;45451;-83
2024/02/19 03:53:37;;;;;;;;;18.00;14.33;;;;;13.53;100.00;102399.94;6250352;22;45447;-83
2024/02/19 03:56:03;;;;;;;;;12.00;10.67;;;;;13.59;100.00;102398.34;6279386;22;45509;-83
2024/02/19 03:58:28;;;;;;;;;6.00;4.67;;;;;13.63;100.00;102395.75;6249572;22;47144;-83
2024/02/19 04:00:54;;;;;;;;;9.33;9.33;;;;;13.65;100.00;102400.28;6249290;22;44777;-82
2024/02/19 04:03:19;;;;;;;;;5.33;2.67;;;;;13.66;100.00;102407.44;6250181;22;45495;-83
2024/02/19 04:05:44;;;;;;;;;9.33;6.67;;;;;13.68;100.00;102411.06;6251346;22;45455;-85
2024/02/19 04:08:10;;;;;;;;;12.67;11.33;;;;;13.63;100.00;102410.03;6254111;22;46870;-85
2024/02/19 04:10:35;;;;;;;;;12.00;10.00;;;;;13.58;100.00;102409.00;6280116;22;44905;-84
2024/02/19 04:13:01;;;;;;;;;12.00;11.67;;;;;13.56;100.00;102408.06;6250268;22;45352;-84
2024/02/19 04:15:30;;;;;;;;;12.00;9.33;;;;;13.68;100.00;102407.50;6277122;22;45342;-79
2024/02/19 04:17:56;;;;;;;;;13.00;11.33;;;;;13.60;100.00;102410.84;6277187;22;46021;-80
2024/02/19 04:20:21;;;;;;;;;10.33;10.33;;;;;13.62;100.00;102410.00;6249831;22;45389;-80
2024/02/19 04:22:47;;;;;;;;;14.67;12.67;;;;;13.62;100.00;102413.56;6275476;22;45272;-78
2024/02/19 04:25:15;;;;;;;;;14.00;11.33;;;;;13.68;100.00;102416.41;6223345;22;45371;-80
2024/02/19 04:27:40;;;;;;;;;14.33;13.00;;;;;13.60;100.00;102421.53;6248644;22;47304;-78
2024/02/19 04:30:06;;;;;;;;;15.00;14.00;;;;;13.56;100.00;102425.00;6276226;22;45390;-79
2024/02/19 04:32:32;;;;;;;;;21.33;14.33;;;;;13.50;100.00;102432.84;6250280;22;45379;-79
2024/02/19 04:34:57;;;;;;;;;16.67;14.00;;;;;13.46;100.00;102432.72;6248859;22;45526;-78
2024/02/19 04:37:24;;;;;;;;;17.33;15.00;;;;;13.48;100.00;102439.91;6274715;22;45319;-79
2024/02/19 04:39:49;;;;;;;;;13.33;13.00;;;;;13.29;100.00;102426.81;6247524;22;45419;-78
2024/02/19 04:42:15;;;;;;;;;12.00;10.33;;;;;13.43;100.00;102437.94;6248440;22;45316;-80
2024/02/19 04:44:41;;;;;;;;;14.33;10.33;;;;;13.40;100.00;102426.31;6276832;22;45420;-78
2024/02/19 04:47:07;;;;;;;;;15.00;10.33;;;;;13.38;100.00;102436.03;6276636;22;46108;-78
2024/02/19 04:49:33;;;;;;;;;13.67;12.00;;;;;13.34;100.00;102425.22;6248924;22;45376;-79
2024/02/19 04:51:58;;;;;;;;;13.33;12.00;;;;;13.37;100.00;102426.22;6275859;22;45349;-79
2024/02/19 04:54:24;;;;;;;;;13.67;11.00;;;;;13.45;100.00;102428.19;6248769;22;45630;-78
2024/02/19 04:56:49;;;;;;;;;14.33;12.00;;;;;13.47;100.00;102414.06;6266930;22;47133;-79
2024/02/19 04:59:14;;;;;;;;;12.33;10.67;;;;;13.48;100.00;102413.16;6303132;22;45381;-80
2024/02/19 05:01:39;;;;;;;;;14.67;11.00;;;;;13.51;100.00;102412.34;6306817;22;45492;-78
2024/02/19 05:04:05;;;;;;;;;12.67;11.00;;;;;13.58;100.00;102419.69;6309967;22;45377;-79
2024/02/19 05:06:31;;;;;;;;;14.00;11.00;;;;;13.62;100.00;102432.28;6309668;22;45827;-79
2024/02/19 05:08:56;;;;;;;;;12.00;12.00;;;;;13.57;100.00;102417.88;6282084;22;45486;-80
2024/02/19 05:11:22;;;;;;;;;13.67;13.67;;;;;13.57;100.00;102433.91;6311036;22;45353;-80
2024/02/19 05:13:47;;;;;;;;;17.00;12.33;;;;;13.56;100.00;102421.41;6281470;22;45664;-79
2024/02/19 05:16:13;;;;;;;;;19.67;15.33;;;;;13.60;100.00;102417.97;6281000;22;47042;-79
2024/02/19 05:18:38;;;;;;;;;12.00;11.67;;;;;13.58;100.00;102411.69;6306177;22;45344;-79
2024/02/19 05:21:04;;;;;;;;;14.33;12.00;;;;;13.65;100.00;102423.44;6308666;22;45334;-84
2024/02/19 05:23:31;;;;;;;;;12.33;12.33;;;;;13.62;100.00;102424.25;6307265;22;45434;-84
2024/02/19 05:25:56;;;;;;;;;13.67;11.67;;;;;13.70;100.00;102435.19;6308246;22;46089;-84
2024/02/19 05:28:22;;;;;;;;;14.33;12.67;;;;;13.69;100.00;102428.91;6279175;22;45268;-84
2024/02/19 05:30:47;;;;;;;;;15.67;13.00;;;;;13.75;100.00;102439.78;6279390;22;45765;-84
2024/02/19 05:33:18;;;;;;;;;13.33;11.00;;;;;13.76;100.00;102446.94;6311175;22;44768;-84
2024/02/19 05:35:47;;;;;;;;;12.00;11.33;;;;;13.82;100.00;102445.31;6308509;22;45437;-83
2024/02/19 05:38:13;;;;;;;;;10.00;6.00;;;;;13.78;100.00;102439.88;6281249;22;45924;-83
2024/02/19 05:40:39;;;;;;;;;14.33;13.00;;;;;13.76;100.00;102440.69;6281762;22;45337;-83
2024/02/19 05:43:05;;;;;;;;;12.67;10.67;;;;;13.76;100.00;102449.63;6310028;22;45470;-83
2024/02/19 05:45:31;;;;;;;;;13.67;12.00;;;;;13.73;100.00;102436.16;6309432;22;47270;-83
2024/02/19 05:47:57;;;;;;;;;12.00;12.00;;;;;13.73;100.00;102454.88;6282319;22;45468;-83
2024/02/19 05:50:22;;;;;;;;;12.67;10.33;;;;;13.72;100.00;102460.19;6309337;22;45374;-83
2024/02/19 05:52:48;;;;;;;;;12.00;9.67;;;;;13.73;100.00;102465.56;6311183;22;45366;-84
2024/02/19 05:55:13;;;;;;;;;12.00;10.00;;;;;13.71;100.00;102472.63;6280008;22;47090;-83
2024/02/19 05:57:39;;;;;;;;;13.33;12.67;;;;;13.69;100.00;102461.00;6280096;22;45422;-84
2024/02/19 06:00:06;;;;;;;;;12.00;10.67;;;;;13.73;100.00;102467.34;6248780;22;45480;-84
2024/02/19 06:02:34;;;;;;;;;15.00;15.00;;;;;13.82;100.00;102478.31;6250653;22;45220;-84
2024/02/19 06:05:00;;;;;;;;;10.33;10.00;;;;;13.73;100.00;102468.25;6247871;22;48083;-84
2024/02/19 06:07:25;;;;;;;;;15.50;12.50;;;;;13.69;100.00;102471.69;6249177;22;45435;-84
2024/02/19 06:09:50;;;;;;;;;13.33;11.00;;;;;13.69;100.00;102465.44;6251234;22;45380;-84
2024/02/19 06:12:16;;;;;;;;;14.33;13.00;;;;;13.71;100.00;102469.06;6252125;22;45420;-84
2024/02/19 06:14:41;;;;;;;;;11.00;11.00;;;;;13.66;100.00;102458.25;6251702;22;47010;-85
2024/02/19 06:17:07;;;;;;;;;11.00;11.00;;;;;13.64;100.00;102461.75;6250229;22;45888;-84
2024/02/19 06:19:32;;;;;;;;;12.00;10.00;;;;;13.58;100.00;102451.78;6250511;22;45403;-84
2024/02/19 06:21:57;;;;;;;;;14.33;11.33;;;;;13.56;100.00;102459.75;6278245;22;45421;-84
2024/02/19 06:24:23;;;;;;;;;13.00;11.33;;;;;13.55;100.00;102457.00;6252206;22;47095;-84
2024/02/19 06:26:48;;;;;;;;;10.00;8.00;;;;;13.48;100.00;102449.69;6251742;22;45720;-84
2024/02/19 06:29:14;;;;;;;;;14.00;10.67;;;;;13.47;100.00;102447.88;6278481;22;45375;-84
2024/02/19 06:35:01;;;;;;;;;11.33;9.33;;;;;13.50;100.00;102458.66;6281111;22;45422;-83
2024/02/19 06:37:26;;;;;;;;;13.33;13.33;;;;;13.55;100.00;102457.00;6230252;22;45377;-84
2024/02/19 06:39:52;;;;;;;;;16.00;13.00;;;;;13.57;100.00;102450.88;6259537;22;45399;-84
2024/02/19 06:42:19;;;;;;;;;12.33;11.67;;;;;13.62;100.00;102459.03;6255437;22;45347;-84
2024/02/19 06:44:45;;;;;;;;;17.33;13.00;;;;;13.68;100.00;102461.88;6252687;22;47605;-83
2024/02/19 06:47:13;;;;;;;;;17.67;16.00;;;;;13.78;100.00;102461.25;6283971;22;45327;-83
2024/02/19 06:49:39;;;;;;;;;14.00;11.00;;;;;13.73;100.00;102454.88;6259560;22;45350;-83
2024/02/19 06:52:04;;;;;;;;;13.33;12.33;;;;;13.77;100.00;102447.84;6249157;22;45317;-84
2024/02/19 06:54:30;;;;;;;;;16.67;13.67;;;;;13.76;100.00;102446.94;6249263;22;47542;-84
2024/02/19 06:56:55;;;;;;;;;15.00;13.67;;;;;13.72;100.00;102441.47;6279139;22;45582;-84
2024/02/19 06:59:21;;;;;;;;;14.00;12.00;;;;;13.70;100.00;102433.41;6277896;22;45288;-85
2024/02/19 07:01:46;;;;;;;;;16.33;14.33;;;;;13.68;100.00;102426.22;6250918;22;45383;-85
2024/02/19 07:04:14;;;;;;;;;15.33;12.67;;;;;13.71;100.00;102416.47;6284524;22;47216;-86
2024/02/19 07:06:40;;;;;;;;;11.33;10.33;;;;;13.65;100.00;102421.66;6256895;22;45377;-84
2024/02/19 07:09:08;;;;;;;;;16.67;12.67;;;;;13.64;100.00;102435.91;6254870;22;45844;-84
2024/02/19 07:11:33;;;;;;;;;19.00;11.67;;;;;13.75;100.00;102444.22;6281080;22;45235;-85
2024/02/19 07:14:02;;;;;;;;;17.00;12.33;;;;;13.83;100.00;102436.41;6261772;22;46783;-85
2024/02/19 07:16:27;;;;;;;;;15.00;12.67;;;;;13.76;100.00;102438.94;6255494;22;45688;-88
2024/02/19 07:18:54;;;;;;;;;13.33;13.00;;;;;13.83;100.00;102447.13;6230015;22;45472;-84
2024/02/19 07:21:20;;;;;;;;;21.67;14.67;;;;;13.80;100.00;102448.84;6283410;22;45253;-84
2024/02/19 07:23:46;;;;;;;;;17.67;14.00;;;;;13.85;100.00;102450.75;6255956;22;47991;-86
2024/02/19 07:26:12;;;;;;;;;13.00;11.67;;;;;13.90;100.00;102454.47;6286732;22;45359;-84
2024/02/19 07:28:37;;;;;;;;;12.33;9.33;;;;;13.98;100.00;102452.91;6255062;22;45288;-84
2024/02/19 07:31:03;;;;;;;;;11.33;10.33;;;;;14.00;100.00;102448.50;6283457;22;45280;-85
2024/02/19 07:33:28;;;;;;;;;12.67;12.00;;;;;14.01;100.00;102464.56;6256460;22;47859;-83
2024/02/19 07:35:54;;;;;;;;;11.33;11.33;;;;;14.06;100.00;102483.44;6280464;22;45678;-84
2024/02/19 07:39:00;;;;;;;;;13.33;10.00;;;;;14.19;100.00;102490.94;6257595;22;45608;-83
2024/02/19 07:41:25;;;;;;;;;12.00;10.00;;;;;13.98;100.00;102480.56;6255560;22;45760;-83
2024/02/19 07:43:51;;;;;;;;;14.00;12.00;;;;;13.95;100.00;102483.13;6255638;22;46130;-83
2024/02/19 07:46:18;;;;;;;;;11.67;10.33;;;;;14.00;100.00;102497.56;6257713;22;45402;-83
2024/02/19 07:48:44;;;;;;;;;10.00;8.33;;;;;14.01;100.00;102495.78;6254666;22;45380;-83
2024/02/19 07:51:09;;;;;;;;;10.00;8.67;;;;;14.03;100.00;102499.41;6252842;22;45429;-83
2024/02/19 07:53:35;;;;;;;;;10.00;6.00;;;;;14.03;100.00;102510.09;6280514;22;45962;-83
2024/02/19 07:56:07;;;;;;;;;12.00;11.00;;;;;14.12;100.00;102507.69;6259174;22;45340;-84
2024/02/19 07:58:33;;;;;;;;;11.33;7.67;;;;;14.01;100.00;102503.81;6285899;22;45437;-83
2024/02/19 08:00:59;;;;;;;;;9.67;8.00;;;;;14.00;100.00;102504.69;6284274;22;45346;-82
2024/02/19 08:03:29;;;;;;;;;4.00;4.00;;;;;14.05;100.00;102504.81;6313068;22;45445;-84
2024/02/19 08:05:54;;;;;;;;;8.00;7.00;;;;;14.14;100.00;102497.94;6319591;22;45191;-83
2024/02/19 08:08:21;;;;;;;;;6.67;4.67;;;;;14.27;100.00;102493.81;6314002;22;45738;-83
2024/02/19 08:10:53;;;;;;;;;6.67;6.67;;;;;14.59;99.42;102494.69;6284791;22;45410;-83
2024/02/19 08:13:19;;;;;;;;;11.33;7.33;;;;;14.62;98.93;102496.53;6313060;22;45539;-83
2024/02/19 08:15:44;;;;;;;;;11.00;8.33;;;;;14.76;98.16;102499.56;6283923;22;45342;-82
2024/02/19 08:18:11;;;;;;;;;5.33;5.33;;;;;14.82;97.98;102488.09;6286325;22;45484;-83
2024/02/19 08:20:39;;;;;;;;;7.67;6.67;;;;;14.92;97.50;102482.09;6313211;22;45416;-81
2024/02/19 08:23:07;;;;;;;;;4.67;4.67;;;;;14.96;96.74;102482.22;6316466;22;45239;-83
2024/02/19 08:25:32;;;;;;;;;6.00;6.00;;;;;14.89;96.33;102466.88;6313851;22;45635;-78
2024/02/19 08:27:59;;;;;;;;;9.00;6.33;;;;;14.82;95.53;102445.25;6282036;22;45393;-84
2024/02/19 08:30:24;;;;;;;;;6.33;5.33;;;;;14.74;95.83;102454.00;6319068;22;45387;-86
2024/02/19 08:32:50;;;;;;;;;8.00;5.33;;;;;14.77;95.30;102469.25;6318636;22;45767;-85
2024/02/19 08:35:16;;;;;;;;;9.33;6.33;;;;;14.67;94.94;102448.47;6315670;22;45799;-84
2024/02/19 08:37:43;;;;;;;;;4.33;4.00;;;;;14.74;94.85;102461.13;6313750;22;45318;-85
2024/02/19 08:40:15;;;;;;;;;4.33;4.33;;;;;14.69;94.47;102454.78;6285785;22;45462;-85
2024/02/19 08:42:41;;;;;;;;;8.67;4.00;;;;;14.69;94.27;102457.44;6286120;22;47467;-84
2024/02/19 08:45:49;;;;;;;;;7.67;5.67;;;;;14.77;94.45;102434.44;6291472;22;45668;-85
2024/02/19 08:48:41;;;;;;;;;6.00;5.00;;;;;14.81;94.73;102401.50;6135828;23;45538;-85
2024/02/19 08:51:08;;;;;;;;;5.00;5.00;;;;;15.03;94.13;102427.00;6131773;23;45428;-85
2024/02/19 08:53:33;;;;;;;;;4.00;4.00;;;;;15.08;93.81;102425.31;6133548;23;46750;-86
2024/02/19 08:55:59;;;;;;;;;9.00;4.00;;;;;15.22;93.94;102420.28;6128632;23;45593;-86
2024/02/19 08:58:25;;;;;;;;;3.00;3.00;;;;;15.39;92.79;102450.13;6105312;23;44879;-84
2024/02/19 09:00:51;;;;;;;;;5.25;4.00;;;;;15.44;91.48;102453.81;6103391;23;45410;-84
2024/02/19 09:03:17;;;;;;;;;5.00;4.00;;;;;15.44;91.31;102461.84;6127610;23;46180;-85
2024/02/19 09:05:43;;;;;;;;;6.00;3.67;;;;;15.26;90.76;102431.97;6129035;23;44949;-85
2024/02/19 09:08:13;;;;;;;;;4.00;4.00;;;;;15.37;90.02;102447.41;6127244;23;45410;-85
2024/02/19 09:10:39;;;;;;;;;7.00;5.33;;;;;15.35;89.78;102470.63;6128842;23;45399;-84
2024/02/19 09:13:06;;;;;;;;;4.00;4.00;;;;;15.12;89.38;102445.06;6103836;23;47383;-84
2024/02/19 09:15:32;;;;;;;;;4.67;3.67;;;;;15.25;89.57;102483.75;6127321;23;44820;-84
2024/02/19 09:17:58;;;;;;;;;3.50;3.50;;;;;15.17;89.42;102489.88;6127766;23;45383;-82
2024/02/19 09:20:24;;;;;;;;;3.67;3.67;;;;;15.17;89.63;102513.09;6103698;23;45327;-82
2024/02/19 09:22:51;;;;;;;;;6.67;5.00;;;;;14.99;89.86;102498.38;6250662;22;45483;-83
2024/02/19 09:25:16;;;;;;;;;5.67;4.00;;;;;15.01;89.90;102506.47;6282730;22;45502;-82
2024/02/19 09:27:42;;;;;;;;;4.67;3.67;;;;;14.99;89.99;102514.44;6283003;22;45470;-82
2024/02/19 09:30:08;;;;;;;;;6.33;5.00;;;;;14.85;89.59;102507.84;6253271;22;45407;-83
2024/02/19 09:32:33;;;;;;;;;3.33;2.67;;;;;14.71;89.15;102517.31;6281531;22;46296;-82
2024/02/19 09:35:02;;;;;;;;;7.00;5.67;;;;;14.69;89.66;102521.72;6254263;22;45382;-83
2024/02/19 09:38:09;;;;;;;;;7.00;4.33;;;;;14.59;90.19;102518.78;6281776;22;44787;-83
2024/02/19 09:40:36;;;;;;;;;4.00;4.00;;;;;14.32;90.91;102520.69;6283514;22;45348;-82
2024/02/19 09:43:05;;;;;;;;;4.00;4.00;;;;;14.17;91.54;102519.41;6282388;22;47758;-83
2024/02/19 09:45:32;;;;;;;;;4.33;4.33;;;;;13.93;92.64;102483.97;6283413;22;45228;-82
2024/02/19 09:48:02;;;;;;;;;4.00;4.00;;;;;14.20;92.74;102530.22;6253220;22;45359;-83
2024/02/19 09:50:49;;;;;;;;;3.00;3.00;;;;;13.98;93.65;102518.00;6257676;22;45396;-84
2024/02/19 09:53:27;;;;;;;;;4.75;3.50;;;;;13.91;94.46;102509.75;6284521;22;45183;-82
2024/02/19 09:55:53;;;;;;;;;4.00;4.00;;;;;13.86;95.25;102538.16;6255823;22;45423;-82
2024/02/19 09:58:19;;;;;;;;;4.00;3.00;;;;;13.71;95.95;102507.41;6256798;22;45357;-82
2024/02/19 10:00:44;;;;;;;;;6.00;3.00;;;;;13.87;95.83;102515.88;6282030;22;45564;-82
2024/02/19 10:03:13;;;;;;;;;3.25;3.00;;;;;13.86;96.29;102482.00;6281209;22;45752;-81
2024/02/19 10:05:39;;;;;;;;;2.33;2.33;;;;;14.18;95.48;102518.56;6283637;22;45443;-83
2024/02/19 10:08:12;;;;;;;;;3.00;2.00;;;;;14.35;95.50;102519.00;6257131;22;45442;-82
2024/02/19 10:10:42;;;;;;;;;2.75;2.75;;;;;14.41;94.04;102492.41;6256782;22;45260;-83
2024/02/19 10:13:11;;;;;;;;;2.33;2.33;;;;;14.44;93.07;102539.78;6253883;22;47236;-84
2024/02/19 10:15:37;;;;;;;;;4.00;3.00;;;;;14.12;93.67;102491.66;6281897;22;45457;-84
2024/02/19 10:21:24;;;;;;;;;4.00;4.00;;;;;14.28;95.24;102532.19;6283308;22;45329;-83
2024/02/19 10:23:50;;;;;;;;;2.50;2.50;;;;;14.24;94.73;102520.50;6256311;22;47821;-84
2024/02/19 10:26:18;;;;;;;;;3.67;3.00;;;;;14.34;95.15;102537.69;6256054;22;45292;-83
2024/02/19 10:28:46;;;;;;;;;4.00;4.00;;;;;14.33;94.56;102541.25;6255208;22;45458;-83
2024/02/19 10:31:13;;;;;;;;;3.00;3.00;;;;;14.30;94.48;102538.47;6285283;22;44757;-84
2024/02/19 10:33:41;;;;;;;;;3.67;3.67;;;;;14.28;94.88;102533.13;6278629;22;45138;-84
2024/02/19 10:36:08;;;;;;;;;3.00;2.00;;;;;14.40;95.21;102537.88;6254628;22;45428;-83
2024/02/19 10:38:33;;;;;;;;;2.50;2.50;;;;;14.39;95.71;102536.97;6281826;22;45382;-83
2024/02/19 10:41:02;;;;;;;;;3.67;3.33;;;;;14.36;96.08;102538.66;6254442;22;45309;-83
2024/02/19 10:43:27;;;;;;;;;4.00;3.00;;;;;14.19;96.33;102523.03;6255242;22;46944;-83
2024/02/19 10:46:04;;;;;;;;;2.00;2.00;;;;;14.32;96.87;102532.34;6254539;22;45688;-84
2024/02/19 10:48:32;;;;;;;;;4.00;2.67;;;;;14.25;95.96;102529.44;6256198;22;45342;-83
2024/02/19 10:51:03;;;;;;;;;3.33;3.00;;;;;14.17;96.04;102523.88;6282183;22;45297;-83
2024/02/19 10:53:29;;;;;;;;;2.67;2.00;;;;;14.00;97.02;102526.09;6229123;22;47167;-83
2024/02/19 10:56:17;;;;;;;;;3.33;3.33;;;;;14.08;98.24;102524.53;6254907;22;45673;-83
2024/02/19 10:58:56;;;;;;;;;2.00;2.00;;;;;14.05;98.94;102529.78;6254865;22;45385;-84
2024/02/19 11:01:54;;;;;;;;;4.00;3.00;;;;;14.20;98.53;102523.97;6257475;22;45245;-84
2024/02/19 11:04:24;;;;;;;;;2.75;2.00;;;;;14.17;98.49;102529.22;6233384;22;48175;-84
2024/02/19 11:06:54;;;;;;;;;5.00;3.50;;;;;14.33;98.14;102530.56;6257376;22;45957;-83
2024/02/19 11:09:38;;;;;;;;;4.50;3.75;;;;;14.45;96.63;102522.84;6230545;22;45246;-84
2024/02/19 11:12:05;;;;;;;;;2.75;2.75;;;;;14.44;96.58;102522.81;6257385;22;45444;-84
2024/02/19 11:14:40;;;;;;;;;1.25;1.25;;;;;14.60;95.15;102515.28;6282873;22;47078;-85
2024/02/19 11:17:08;;;;;;;;;2.33;2.33;;;;;14.65;95.23;102514.47;6282062;22;44986;-84
2024/02/19 11:19:41;;;;;;;;;3.00;2.00;;;;;14.68;92.62;102527.94;6258288;22;45434;-84
2024/02/19 11:22:22;;;;;;;;;3.00;2.00;;;;;14.59;92.63;102518.78;6255405;22;45361;-84
2024/02/19 11:24:50;;;;;;;;;2.00;2.00;;;;;14.54;93.26;102525.78;6258364;22;45609;-84
2024/02/19 11:27:16;;;;;;;;;1.00;1.00;;;;;14.63;92.53;102524.25;6257463;22;45362;-83